createdAt,value
2018-07-14T00:02:19.639Z,60.48
2018-07-14T00:04:47.443Z,62.13
2018-07-14T00:07:15.172Z,60.05
2018-07-14T00:09:42.988Z,61.95
2018-07-14T00:12:10.807Z,62.95
2018-07-14T00:14:38.645Z,63.38
2018-07-14T00:17:06.519Z,61.98
2018-07-14T00:19:34.275Z,64.40
2018-07-14T00:22:02.064Z,58.11
2018-07-14T00:24:29.890Z,63.17
2018-07-14T00:26:57.615Z,62.85
2018-07-14T00:29:25.470Z,62.84
2018-07-14T00:31:53.240Z,62.43
2018-07-14T00:34:21.012Z,64.52
2018-07-14T00:36:48.785Z,64.73
2018-07-14T00:39:16.603Z,62.81
2018-07-14T00:41:44.349Z,62.61
2018-07-14T00:44:12.120Z,64.23
2018-07-14T00:46:39.947Z,63.85
2018-07-14T00:49:07.796Z,65.39
2018-07-14T00:51:35.555Z,64.91
2018-07-14T00:54:03.431Z,64.00
2018-07-14T00:56:31.216Z,65.49
2018-07-14T00:58:59.026Z,64.90
2018-07-14T01:01:26.867Z,66.08
2018-07-14T01:03:54.669Z,64.58
2018-07-14T01:06:22.507Z,65.57
2018-07-14T01:08:50.271Z,64.91
2018-07-14T01:11:18.012Z,63.96
2018-07-14T01:13:45.886Z,61.91
2018-07-14T01:16:13.723Z,64.12
2018-07-14T01:18:41.543Z,63.77
2018-07-14T01:21:09.374Z,66.82
2018-07-14T01:23:37.211Z,62.92
2018-07-14T01:26:05.528Z,61.29
2018-07-14T01:28:33.455Z,63.05
2018-07-14T01:31:01.318Z,63.71
2018-07-14T01:33:29.101Z,64.57
2018-07-14T01:35:56.874Z,63.64
2018-07-14T01:38:24.663Z,62.82
2018-07-14T01:40:52.474Z,65.96
2018-07-14T01:43:20.223Z,63.75
2018-07-14T01:45:48.000Z,65.63
2018-07-14T01:48:15.719Z,65.43
2018-07-14T01:50:43.519Z,65.22
2018-07-14T01:53:11.312Z,64.87
2018-07-14T01:55:39.132Z,65.45
2018-07-14T01:58:06.883Z,67.82
2018-07-14T02:00:34.691Z,67.81
2018-07-14T02:03:02.536Z,64.19
2018-07-14T02:05:30.324Z,67.03
2018-07-14T02:07:58.168Z,66.56
2018-07-14T02:10:25.964Z,66.87
2018-07-14T02:12:53.705Z,66.28
2018-07-14T02:15:21.516Z,67.80
2018-07-14T02:17:49.294Z,68.17
2018-07-14T02:20:17.250Z,66.63
2018-07-14T02:22:45.083Z,62.85
2018-07-14T02:25:12.901Z,64.49
2018-07-14T02:27:40.726Z,64.80
2018-07-14T02:30:08.486Z,63.70
2018-07-14T02:32:36.315Z,66.53
2018-07-14T02:35:04.206Z,66.16
2018-07-14T02:37:31.999Z,66.18
2018-07-14T02:39:59.820Z,64.65
2018-07-14T02:42:27.645Z,68.58
2018-07-14T02:44:55.424Z,68.24
2018-07-14T02:47:23.221Z,67.32
2018-07-14T02:49:51.039Z,66.21
2018-07-14T02:52:18.989Z,67.05
2018-07-14T02:54:47.083Z,68.12
2018-07-14T02:57:14.856Z,67.28
2018-07-14T02:59:42.741Z,66.73
2018-07-14T03:02:10.516Z,68.72
2018-07-14T03:04:38.307Z,64.32
2018-07-14T03:07:06.267Z,67.41
2018-07-14T03:09:34.179Z,68.39
2018-07-14T03:12:01.940Z,68.47
2018-07-14T03:14:29.767Z,67.65
2018-07-14T03:16:57.620Z,65.87
2018-07-14T03:19:25.471Z,65.71
2018-07-14T03:21:53.376Z,67.80
2018-07-14T03:24:21.268Z,67.38
2018-07-14T03:26:49.165Z,66.77
2018-07-14T03:29:16.944Z,67.62
2018-07-14T03:31:44.751Z,67.05
2018-07-14T03:34:12.560Z,66.43
2018-07-14T03:36:40.345Z,67.36
2018-07-14T03:39:08.175Z,66.05
2018-07-14T03:41:36.043Z,66.20
2018-07-14T03:44:03.853Z,67.41
2018-07-14T03:46:31.675Z,67.42
2018-07-14T03:48:59.499Z,67.52
2018-07-14T03:51:27.315Z,66.14
2018-07-14T03:53:55.144Z,67.21
2018-07-14T03:56:23.056Z,65.93
2018-07-14T03:58:50.802Z,65.58
2018-07-14T04:01:18.599Z,65.56
2018-07-14T04:03:46.340Z,65.53
2018-07-14T04:06:14.113Z,63.90
2018-07-14T04:08:41.947Z,65.74
2018-07-14T04:11:09.747Z,65.47
2018-07-14T04:13:37.588Z,63.51
2018-07-14T04:16:05.450Z,63.66
2018-07-14T04:18:33.299Z,64.32
2018-07-14T04:21:01.151Z,63.63
2018-07-14T04:23:29.000Z,64.46
2018-07-14T04:25:56.811Z,64.36
2018-07-14T04:28:24.575Z,64.84
2018-07-14T04:30:52.435Z,64.75
2018-07-14T04:33:20.260Z,65.27
2018-07-14T04:35:48.113Z,63.86
2018-07-14T04:38:15.921Z,65.46
2018-07-14T04:40:43.699Z,64.21
2018-07-14T04:43:11.516Z,63.72
2018-07-14T04:45:39.348Z,63.82
2018-07-14T04:48:07.147Z,63.66
2018-07-14T04:50:34.971Z,64.63
2018-07-14T04:53:02.834Z,64.77
2018-07-14T04:55:30.626Z,64.88
2018-07-14T04:57:58.513Z,63.87
2018-07-14T05:00:26.314Z,63.97
2018-07-14T05:02:54.108Z,63.25
2018-07-14T05:05:21.913Z,63.94
2018-07-14T05:07:49.718Z,64.10
2018-07-14T05:10:17.529Z,63.49
2018-07-14T05:12:45.360Z,62.52
2018-07-14T05:15:13.124Z,63.66
2018-07-14T05:17:40.963Z,63.91
2018-07-14T05:20:08.771Z,64.23
2018-07-14T05:22:36.558Z,64.48
2018-07-14T05:25:04.496Z,64.21
2018-07-14T05:27:32.235Z,63.79
2018-07-14T05:30:00.091Z,64.55
2018-07-14T05:32:27.912Z,63.48
2018-07-14T05:34:55.736Z,63.47
2018-07-14T05:37:23.555Z,63.55
2018-07-14T05:39:51.334Z,63.38
2018-07-14T05:42:19.126Z,63.40
2018-07-14T05:44:46.964Z,63.27
2018-07-14T05:47:14.900Z,63.70
2018-07-14T05:49:42.680Z,63.36
2018-07-14T05:52:10.553Z,63.20
2018-07-14T05:54:38.296Z,63.03
2018-07-14T05:57:06.139Z,62.25
2018-07-14T05:59:34.051Z,61.63
2018-07-14T06:02:01.844Z,61.35
2018-07-14T06:04:29.700Z,60.91
2018-07-14T06:06:57.545Z,61.81
2018-07-14T06:09:25.356Z,61.10
2018-07-14T06:11:53.124Z,61.27
2018-07-14T06:14:21.031Z,59.73
2018-07-14T06:16:48.788Z,59.66
2018-07-14T06:19:16.585Z,58.82
2018-07-14T06:21:44.451Z,58.91
2018-07-14T06:24:12.275Z,57.99
2018-07-14T06:26:40.020Z,57.93
2018-07-14T06:29:07.775Z,57.20
2018-07-14T06:31:35.625Z,57.02
2018-07-14T06:34:03.460Z,56.93
2018-07-14T06:36:31.308Z,56.82
2018-07-14T06:38:59.063Z,57.22
2018-07-14T06:41:26.966Z,56.86
2018-07-14T06:43:54.772Z,56.68
2018-07-14T06:46:22.644Z,56.22
2018-07-14T06:48:50.466Z,56.15
2018-07-14T06:51:18.282Z,56.50
2018-07-14T06:53:46.005Z,56.10
2018-07-14T06:56:13.796Z,55.71
2018-07-14T06:58:41.687Z,53.86
2018-07-14T07:01:09.544Z,53.63
2018-07-14T07:03:37.442Z,52.19
2018-07-14T07:06:05.304Z,52.40
2018-07-14T07:08:33.195Z,50.04
2018-07-14T07:11:01.003Z,49.60
2018-07-14T07:13:28.851Z,49.77
2018-07-14T07:15:56.659Z,48.57
2018-07-14T07:18:24.571Z,49.32
2018-07-14T07:20:52.383Z,48.42
2018-07-14T07:23:20.213Z,48.72
2018-07-14T07:25:50.232Z,47.09
2018-07-14T07:28:17.979Z,47.71
2018-07-14T07:30:45.763Z,47.63
2018-07-14T07:33:13.583Z,46.68
2018-07-14T07:35:41.479Z,47.59
2018-07-14T07:38:09.336Z,47.74
2018-07-14T07:40:37.141Z,48.13
2018-07-14T07:43:05.170Z,47.22
2018-07-14T07:45:33.007Z,46.68
2018-07-14T07:48:00.766Z,47.35
2018-07-14T07:50:28.551Z,46.50
2018-07-14T07:52:56.355Z,47.35
2018-07-14T07:55:24.161Z,47.26
2018-07-14T07:57:51.950Z,46.14
2018-07-14T08:00:19.723Z,45.71
2018-07-14T08:02:47.556Z,45.67
2018-07-14T08:05:15.335Z,45.74
2018-07-14T08:07:43.171Z,46.21
2018-07-14T08:10:11.021Z,46.42
2018-07-14T08:12:38.900Z,45.30
2018-07-14T08:15:06.776Z,45.68
2018-07-14T08:17:34.592Z,46.04
2018-07-14T08:20:02.423Z,44.90
2018-07-14T08:22:30.268Z,45.09
2018-07-14T08:24:58.189Z,45.08
2018-07-14T08:27:25.976Z,44.65
2018-07-14T08:29:53.799Z,43.04
2018-07-14T08:32:21.684Z,43.19
2018-07-14T08:34:49.464Z,41.68
2018-07-14T08:37:17.264Z,42.11
2018-07-14T08:39:45.095Z,42.33
2018-07-14T08:42:12.827Z,43.22
2018-07-14T08:44:40.696Z,42.66
2018-07-14T08:47:08.599Z,42.81
2018-07-14T08:49:36.400Z,41.40
2018-07-14T08:52:04.263Z,40.73
2018-07-14T08:54:32.076Z,39.74
2018-07-14T08:56:59.984Z,39.95
2018-07-14T08:59:27.783Z,40.24
2018-07-14T09:01:55.585Z,38.08
2018-07-14T09:04:23.399Z,37.89
2018-07-14T09:06:51.356Z,37.45
2018-07-14T09:09:19.111Z,39.03
2018-07-14T09:11:46.931Z,39.56
2018-07-14T09:14:14.771Z,38.01
2018-07-14T09:16:42.585Z,37.88
2018-07-14T09:19:10.504Z,38.26
2018-07-14T09:21:38.424Z,37.06
2018-07-14T09:24:06.287Z,36.42
2018-07-14T09:26:34.163Z,37.37
2018-07-14T09:29:01.983Z,36.40
2018-07-14T09:31:29.771Z,35.99
2018-07-14T09:33:57.592Z,34.97
2018-07-14T09:36:25.486Z,33.20
2018-07-14T09:38:53.292Z,33.21
2018-07-14T09:41:21.091Z,33.25
2018-07-14T09:43:48.879Z,33.27
2018-07-14T09:46:16.740Z,33.54
2018-07-14T09:48:44.566Z,33.71
2018-07-14T09:51:12.387Z,32.69
2018-07-14T09:53:40.230Z,31.79
2018-07-14T09:56:08.019Z,30.96
2018-07-14T09:58:35.843Z,30.94
2018-07-14T10:01:06.599Z,29.76
2018-07-14T10:03:34.764Z,28.01
2018-07-14T10:06:02.634Z,27.65
2018-07-14T10:08:30.958Z,24.85
2018-07-14T10:10:58.836Z,24.16
2018-07-14T10:13:26.783Z,23.40
2018-07-14T10:15:54.967Z,22.45
2018-07-14T10:18:23.043Z,22.12
2018-07-14T10:20:50.992Z,20.39
2018-07-14T10:23:18.959Z,17.93
2018-07-14T10:25:46.998Z,17.84
2018-07-14T10:28:14.567Z,18.70
2018-07-14T10:30:42.355Z,17.09
2018-07-14T10:33:10.382Z,17.49
2018-07-14T10:35:38.232Z,16.69
2018-07-14T10:38:06.300Z,17.12
2018-07-14T10:40:34.415Z,17.32
2018-07-14T10:43:02.250Z,17.50
2018-07-14T10:45:30.051Z,16.21
2018-07-14T10:47:57.844Z,15.67
2018-07-14T10:50:25.647Z,15.10
2018-07-14T10:52:53.395Z,14.70
2018-07-14T10:55:21.192Z,13.89
2018-07-14T10:57:49.129Z,13.84
2018-07-14T11:00:17.692Z,14.19
2018-07-14T11:02:45.552Z,14.20
2018-07-14T11:05:13.370Z,12.92
2018-07-14T11:07:41.172Z,13.01
2018-07-14T11:10:08.930Z,13.18
2018-07-14T11:12:36.916Z,13.28
2018-07-14T11:15:04.858Z,12.64
2018-07-14T11:17:32.771Z,12.44
2018-07-14T11:20:00.588Z,12.75
2018-07-14T11:22:28.397Z,12.06
2018-07-14T11:24:56.161Z,11.79
2018-07-14T11:27:23.979Z,11.81
2018-07-14T11:29:51.779Z,11.49
2018-07-14T11:32:19.619Z,12.04
2018-07-14T11:34:47.407Z,12.36
2018-07-14T11:37:15.226Z,11.25
2018-07-14T11:39:42.954Z,11.91
2018-07-14T11:42:10.836Z,12.21
2018-07-14T11:44:38.659Z,11.40
2018-07-14T11:47:06.585Z,11.65
2018-07-14T11:49:34.415Z,11.18
2018-07-14T11:52:02.263Z,10.45
2018-07-14T11:54:30.371Z,11.16
2018-07-14T11:56:58.249Z,11.79
2018-07-14T11:59:26.302Z,11.62
2018-07-14T12:01:54.167Z,11.04
2018-07-14T12:04:21.911Z,10.39
2018-07-14T12:06:49.738Z,11.00
2018-07-14T12:09:17.531Z,11.13
2018-07-14T12:11:45.391Z,12.06
2018-07-14T12:14:13.311Z,11.68
2018-07-14T12:16:41.035Z,10.85
2018-07-14T12:19:08.842Z,11.33
2018-07-14T12:21:36.674Z,11.32
2018-07-14T12:24:04.756Z,11.21
2018-07-14T12:26:32.633Z,10.74
2018-07-14T12:29:00.363Z,12.90
2018-07-14T12:31:28.159Z,11.33
2018-07-14T12:33:55.928Z,12.90
2018-07-14T12:36:23.763Z,11.43
2018-07-14T12:38:51.589Z,12.57
2018-07-14T12:41:19.416Z,12.37
2018-07-14T12:43:47.332Z,11.70
2018-07-14T12:46:15.141Z,12.39
2018-07-14T12:48:42.935Z,12.15
2018-07-14T12:51:10.683Z,13.26
2018-07-14T12:53:38.565Z,13.15
2018-07-14T12:56:06.423Z,11.72
2018-07-14T12:58:34.277Z,13.15
2018-07-14T13:01:02.096Z,13.40
2018-07-14T13:03:29.932Z,14.30
2018-07-14T13:05:57.805Z,12.93
2018-07-14T13:08:25.638Z,12.78
2018-07-14T13:10:53.423Z,14.09
2018-07-14T13:13:21.243Z,14.98
2018-07-14T13:15:49.115Z,14.72
2018-07-14T13:18:16.880Z,16.42
2018-07-14T13:20:44.891Z,16.03
2018-07-14T13:23:12.731Z,16.10
2018-07-14T13:25:40.575Z,16.14
2018-07-14T13:28:08.275Z,17.04
2018-07-14T13:30:36.119Z,17.71
2018-07-14T13:33:04.160Z,17.39
2018-07-14T13:35:31.992Z,18.17
2018-07-14T13:37:59.840Z,18.79
2018-07-14T13:40:27.703Z,17.41
2018-07-14T13:42:55.593Z,17.80
2018-07-14T13:45:23.754Z,17.08
2018-07-14T13:47:51.620Z,18.65
2018-07-14T13:50:19.474Z,18.39
2018-07-14T13:52:47.257Z,18.75
2018-07-14T13:55:15.104Z,19.54
2018-07-14T13:57:42.940Z,16.94
2018-07-14T14:00:10.844Z,17.66
2018-07-14T14:02:38.627Z,17.59
2018-07-14T14:05:06.528Z,17.93
2018-07-14T14:07:34.423Z,18.36
2018-07-14T14:10:02.272Z,17.59
2018-07-14T14:12:31.243Z,18.61
2018-07-14T14:14:59.023Z,19.00
2018-07-14T14:17:26.897Z,17.27
2018-07-14T14:19:55.317Z,18.47
2018-07-14T14:22:23.025Z,17.67
2018-07-14T14:24:50.769Z,19.00
2018-07-14T14:27:18.564Z,18.83
2018-07-14T14:29:46.371Z,19.59
2018-07-14T14:32:14.843Z,19.79
2018-07-14T14:34:42.708Z,20.02
2018-07-14T14:37:10.549Z,19.38
2018-07-14T14:39:38.355Z,19.61
2018-07-14T14:42:06.488Z,18.36
2018-07-14T14:44:34.224Z,18.94
2018-07-14T14:47:02.096Z,20.72
2018-07-14T14:49:29.944Z,20.88
2018-07-14T14:51:57.779Z,20.79
2018-07-14T14:54:25.601Z,20.54
2018-07-14T14:56:53.439Z,20.97
2018-07-14T14:59:21.266Z,19.93
2018-07-14T15:01:49.000Z,20.93
2018-07-14T15:04:16.839Z,19.76
2018-07-14T15:06:44.635Z,20.57
2018-07-14T15:09:12.527Z,20.53
2018-07-14T15:11:40.363Z,20.10
2018-07-14T15:14:08.196Z,20.51
2018-07-14T15:16:36.008Z,20.85
2018-07-14T15:19:03.805Z,20.02
2018-07-14T15:21:31.571Z,19.19
2018-07-14T15:23:59.431Z,19.61
2018-07-14T15:26:28.112Z,19.71
2018-07-14T15:28:55.903Z,20.71
2018-07-14T15:31:24.070Z,20.11
2018-07-14T15:33:51.882Z,20.09
2018-07-14T15:36:19.703Z,21.08
2018-07-14T15:38:47.544Z,20.72
2018-07-14T15:41:15.421Z,21.46
2018-07-14T15:43:43.293Z,21.50
2018-07-14T15:46:11.135Z,21.54
2018-07-14T15:48:39.023Z,20.12
2018-07-14T15:51:06.887Z,21.41
2018-07-14T15:53:34.626Z,20.62
2018-07-14T15:56:02.531Z,21.26
2018-07-14T15:58:30.368Z,20.79
2018-07-14T16:00:58.171Z,20.29
2018-07-14T16:03:25.965Z,21.21
2018-07-14T16:05:53.779Z,21.34
2018-07-14T16:08:21.583Z,21.77
2018-07-14T16:10:49.638Z,22.05
2018-07-14T16:13:17.367Z,21.51
2018-07-14T16:15:45.188Z,21.18
2018-07-14T16:18:12.948Z,21.25
2018-07-14T16:20:40.696Z,21.98
2018-07-14T16:23:08.471Z,21.38
2018-07-14T16:25:36.362Z,21.78
2018-07-14T16:28:04.148Z,22.61
2018-07-14T16:30:31.931Z,22.36
2018-07-14T16:32:59.692Z,21.96
2018-07-14T16:35:27.517Z,21.01
2018-07-14T16:37:55.336Z,21.91
2018-07-14T16:40:23.083Z,21.69
2018-07-14T16:42:51.438Z,22.81
2018-07-14T16:45:19.296Z,23.13
2018-07-14T16:47:47.108Z,22.33
2018-07-14T16:50:24.873Z,21.56
2018-07-14T16:52:52.951Z,22.25
2018-07-14T16:55:20.804Z,21.89
2018-07-14T16:57:48.643Z,22.02
2018-07-14T17:00:16.423Z,22.08
2018-07-14T17:02:44.234Z,23.00
2018-07-14T17:05:12.096Z,22.92
2018-07-14T17:07:39.903Z,23.15
2018-07-14T17:10:07.779Z,22.99
2018-07-14T17:12:35.583Z,23.13
2018-07-14T17:15:03.435Z,23.53
2018-07-14T17:17:31.207Z,22.96
2018-07-14T17:19:58.975Z,23.63
2018-07-14T17:22:26.784Z,22.81
2018-07-14T17:24:54.599Z,23.63
2018-07-14T17:27:22.395Z,24.09
2018-07-14T17:29:50.148Z,24.05
2018-07-14T17:32:17.995Z,24.68
2018-07-14T17:34:45.924Z,24.46
2018-07-14T17:37:13.725Z,24.78
2018-07-14T17:39:41.524Z,24.75
2018-07-14T17:42:09.363Z,25.62
2018-07-14T17:44:37.144Z,26.05
2018-07-14T17:47:05.201Z,25.69
2018-07-14T17:49:32.970Z,25.99
2018-07-14T17:52:00.917Z,26.57
2018-07-14T17:54:28.551Z,26.30
2018-07-14T17:56:56.426Z,26.57
2018-07-14T17:59:24.228Z,26.95
2018-07-14T18:01:52.055Z,27.52
2018-07-14T18:04:19.855Z,27.13
2018-07-14T18:06:47.649Z,27.39
2018-07-14T18:09:15.580Z,27.59
2018-07-14T18:11:43.380Z,28.27
2018-07-14T18:14:11.216Z,28.72
2018-07-14T18:16:39.097Z,28.93
2018-07-14T18:19:07.110Z,28.59
2018-07-14T18:21:34.983Z,29.15
2018-07-14T18:24:02.799Z,29.17
2018-07-14T18:26:30.632Z,29.34
2018-07-14T18:28:58.427Z,30.11
2018-07-14T18:31:26.248Z,30.14
2018-07-14T18:33:54.034Z,30.36
2018-07-14T18:36:21.852Z,30.54
2018-07-14T18:38:49.680Z,30.10
2018-07-14T18:41:17.496Z,29.97
2018-07-14T18:43:45.343Z,30.63
2018-07-14T18:46:13.699Z,30.95
2018-07-14T18:48:41.506Z,31.05
2018-07-14T18:51:09.299Z,30.89
2018-07-14T18:53:37.180Z,30.89
2018-07-14T18:56:05.314Z,31.11
2018-07-14T18:58:33.158Z,31.11
2018-07-14T19:01:00.895Z,31.58
2018-07-14T19:03:28.755Z,31.33
2018-07-14T19:05:56.555Z,31.59
2018-07-14T19:08:24.528Z,31.90
2018-07-14T19:10:52.377Z,32.10
2018-07-14T19:13:20.158Z,32.22
2018-07-14T19:15:48.057Z,32.46
2018-07-14T19:18:15.866Z,32.87
2018-07-14T19:20:43.748Z,32.70
2018-07-14T19:23:11.540Z,32.59
2018-07-14T19:25:39.384Z,33.03
2018-07-14T19:28:07.244Z,32.79
2018-07-14T19:30:35.095Z,33.32
2018-07-14T19:33:03.036Z,33.92
2018-07-14T19:35:30.882Z,34.25
2018-07-14T19:37:58.705Z,34.25
2018-07-14T19:40:26.535Z,34.66
2018-07-14T19:42:54.315Z,34.93
2018-07-14T19:45:22.095Z,35.83
2018-07-14T19:47:50.076Z,35.75
2018-07-14T19:50:17.881Z,35.39
2018-07-14T19:52:45.648Z,35.42
2018-07-14T19:55:13.443Z,35.10
2018-07-14T19:57:41.279Z,35.85
2018-07-14T20:00:09.248Z,34.79
2018-07-14T20:02:37.103Z,36.42
2018-07-14T20:05:04.964Z,35.07
2018-07-14T20:07:32.740Z,36.12
2018-07-14T20:10:00.686Z,37.38
2018-07-14T20:12:29.832Z,37.21
2018-07-14T20:14:57.713Z,37.57
2018-07-14T20:17:25.531Z,37.38
2018-07-14T20:19:53.331Z,38.62
2018-07-14T20:22:21.180Z,39.67
2018-07-14T20:24:48.988Z,39.63
2018-07-14T20:27:16.823Z,40.03
2018-07-14T20:29:44.684Z,40.36
2018-07-14T20:32:12.508Z,40.81
2018-07-14T20:34:40.277Z,40.95
2018-07-14T20:37:08.315Z,41.20
2018-07-14T20:39:36.099Z,42.54
2018-07-14T20:42:04.396Z,41.99
2018-07-14T20:44:32.483Z,43.09
2018-07-14T20:47:00.403Z,42.63
2018-07-14T20:49:28.271Z,42.59
2018-07-14T20:51:56.086Z,42.27
2018-07-14T20:54:23.912Z,43.67
2018-07-14T20:56:51.803Z,44.34
2018-07-14T20:59:19.724Z,44.17
2018-07-14T21:01:47.520Z,44.49
2018-07-14T21:04:15.384Z,44.01
2018-07-14T21:06:43.253Z,43.55
2018-07-14T21:09:11.055Z,43.43
2018-07-14T21:11:38.832Z,45.14
2018-07-14T21:14:06.566Z,45.49
2018-07-14T21:16:34.428Z,45.19
2018-07-14T21:19:02.335Z,44.12
2018-07-14T21:21:30.148Z,45.26
2018-07-14T21:23:57.968Z,46.28
2018-07-14T21:26:25.867Z,45.30
2018-07-14T21:28:53.656Z,45.02
2018-07-14T21:31:21.532Z,47.30
2018-07-14T21:33:49.359Z,45.72
2018-07-14T21:36:17.123Z,47.18
2018-07-14T21:38:44.967Z,47.36
2018-07-14T21:41:12.967Z,48.12
2018-07-14T21:43:40.744Z,48.26
2018-07-14T21:46:08.520Z,46.70
2018-07-14T21:48:36.271Z,48.13
2018-07-14T21:51:04.322Z,47.99
2018-07-14T21:53:32.128Z,47.39
2018-07-14T21:55:59.867Z,47.61
2018-07-14T21:58:27.643Z,48.23
2018-07-14T22:01:04.692Z,48.75
2018-07-14T22:03:34.161Z,49.25
2018-07-14T22:06:02.438Z,47.96
2018-07-14T22:08:30.164Z,48.61
2018-07-14T22:10:58.036Z,49.50
2018-07-14T22:13:25.867Z,47.93
2018-07-14T22:15:54.387Z,49.73
2018-07-14T22:18:22.204Z,48.65
2018-07-14T22:20:50.040Z,50.06
2018-07-14T22:23:17.902Z,50.53
2018-07-14T22:25:45.692Z,50.83
2018-07-14T22:28:13.609Z,49.92
2018-07-14T22:30:41.465Z,49.82
2018-07-14T22:33:09.292Z,51.06
2018-07-14T22:35:37.068Z,51.86
2018-07-14T22:38:05.189Z,51.48
2018-07-14T22:40:33.027Z,52.47
2018-07-14T22:43:00.842Z,50.96
2018-07-14T22:45:28.560Z,52.03
2018-07-14T22:47:56.487Z,51.74
2018-07-14T22:50:24.352Z,52.70
2018-07-14T22:52:52.604Z,50.38
2018-07-14T22:55:20.373Z,51.33
2018-07-14T22:57:48.171Z,51.20
2018-07-14T23:00:15.956Z,53.46
2018-07-14T23:02:44.775Z,53.60
2018-07-14T23:05:12.575Z,53.35
2018-07-14T23:07:40.367Z,53.23
2018-07-14T23:10:08.215Z,53.89
2018-07-14T23:12:36.108Z,53.81
2018-07-14T23:15:03.959Z,54.55
2018-07-14T23:17:31.692Z,54.79
2018-07-14T23:19:59.442Z,53.26
2018-07-14T23:22:27.296Z,54.04
2018-07-14T23:24:55.080Z,55.52
2018-07-14T23:27:23.256Z,55.79
2018-07-14T23:29:51.057Z,55.53
2018-07-14T23:32:18.840Z,54.15
2018-07-14T23:34:46.690Z,54.97
2018-07-14T23:37:14.576Z,53.30
2018-07-14T23:39:42.380Z,53.50
2018-07-14T23:42:10.159Z,53.07
2018-07-14T23:44:37.912Z,54.71
2018-07-14T23:47:05.788Z,54.40
2018-07-14T23:49:33.575Z,53.93
2018-07-14T23:52:01.374Z,54.29
2018-07-14T23:54:29.157Z,54.78
2018-07-14T23:56:56.956Z,55.09
2018-07-14T23:59:24.802Z,54.57
